sensor_id;sensor_type;location;lat;lon;timestamp;P1;durP1;ratioP1;P2;durP2;ratioP2
6358;SDS011;3212;51.460;11.868;2023-07-13T00:00:06;2.00;;;1.80;;
6358;SDS011;3212;51.460;11.868;2023-07-13T00:03:32;1.70;;;1.60;;
6358;SDS011;3212;51.460;11.868;2023-07-13T00:06:55;1.87;;;1.63;;
6358;SDS011;3212;51.460;11.868;2023-07-13T00:10:18;2.00;;;1.80;;
6358;SDS011;3212;51.460;11.868;2023-07-13T00:13:41;6.43;;;2.20;;
6358;SDS011;3212;51.460;11.868;2023-07-13T00:17:03;4.93;;;1.73;;
6358;SDS011;3212;51.460;11.868;2023-07-13T00:20:26;3.27;;;1.93;;
6358;SDS011;3212;51.460;11.868;2023-07-13T00:23:48;2.03;;;1.80;;
6358;SDS011;3212;51.460;11.868;2023-07-13T00:27:11;2.60;;;1.93;;
6358;SDS011;3212;51.460;11.868;2023-07-13T00:30:34;3.40;;;1.83;;
6358;SDS011;3212;51.460;11.868;2023-07-13T00:33:56;5.90;;;2.10;;
6358;SDS011;3212;51.460;11.868;2023-07-13T00:37:19;2.73;;;1.90;;
6358;SDS011;3212;51.460;11.868;2023-07-13T00:40:42;3.47;;;2.10;;
6358;SDS011;3212;51.460;11.868;2023-07-13T00:44:04;3.23;;;1.97;;
6358;SDS011;3212;51.460;11.868;2023-07-13T00:47:27;3.20;;;2.03;;
6358;SDS011;3212;51.460;11.868;2023-07-13T00:50:51;4.57;;;2.40;;
6358;SDS011;3212;51.460;11.868;2023-07-13T00:54:13;5.10;;;3.03;;
6358;SDS011;3212;51.460;11.868;2023-07-13T00:57:34;4.90;;;2.17;;
6358;SDS011;3212;51.460;11.868;2023-07-13T01:00:57;5.73;;;2.57;;
6358;SDS011;3212;51.460;11.868;2023-07-13T01:04:19;3.83;;;2.40;;
6358;SDS011;3212;51.460;11.868;2023-07-13T01:07:42;4.93;;;3.03;;
6358;SDS011;3212;51.460;11.868;2023-07-13T01:11:04;5.03;;;2.70;;
6358;SDS011;3212;51.460;11.868;2023-07-13T01:14:27;2.80;;;2.50;;
6358;SDS011;3212;51.460;11.868;2023-07-13T01:17:50;3.60;;;2.40;;
6358;SDS011;3212;51.460;11.868;2023-07-13T01:21:13;2.93;;;2.60;;
6358;SDS011;3212;51.460;11.868;2023-07-13T01:24:36;5.37;;;2.67;;
6358;SDS011;3212;51.460;11.868;2023-07-13T01:27:58;2.60;;;2.40;;
6358;SDS011;3212;51.460;11.868;2023-07-13T01:31:21;3.20;;;2.80;;
6358;SDS011;3212;51.460;11.868;2023-07-13T01:34:44;4.63;;;2.77;;
6358;SDS011;3212;51.460;11.868;2023-07-13T01:38:06;6.90;;;2.77;;
6358;SDS011;3212;51.460;11.868;2023-07-13T01:41:29;3.17;;;2.63;;
6358;SDS011;3212;51.460;11.868;2023-07-13T01:44:52;4.97;;;3.07;;
6358;SDS011;3212;51.460;11.868;2023-07-13T01:48:14;8.37;;;2.80;;
6358;SDS011;3212;51.460;11.868;2023-07-13T01:51:38;2.80;;;2.50;;
6358;SDS011;3212;51.460;11.868;2023-07-13T01:55:01;7.23;;;3.03;;
6358;SDS011;3212;51.460;11.868;2023-07-13T01:58:23;4.73;;;3.30;;
6358;SDS011;3212;51.460;11.868;2023-07-13T02:01:46;5.53;;;2.77;;
6358;SDS011;3212;51.460;11.868;2023-07-13T02:05:09;4.47;;;3.10;;
6358;SDS011;3212;51.460;11.868;2023-07-13T02:08:32;3.23;;;2.70;;
6358;SDS011;3212;51.460;11.868;2023-07-13T02:11:54;4.70;;;2.80;;
6358;SDS011;3212;51.460;11.868;2023-07-13T02:15:17;10.30;;;3.10;;
6358;SDS011;3212;51.460;11.868;2023-07-13T02:18:40;4.40;;;2.60;;
6358;SDS011;3212;51.460;11.868;2023-07-13T02:22:02;6.93;;;3.50;;
6358;SDS011;3212;51.460;11.868;2023-07-13T02:25:25;4.60;;;2.73;;
6358;SDS011;3212;51.460;11.868;2023-07-13T02:28:48;3.80;;;2.70;;
6358;SDS011;3212;51.460;11.868;2023-07-13T02:32:10;7.63;;;3.73;;
6358;SDS011;3212;51.460;11.868;2023-07-13T02:35:32;5.60;;;3.00;;
6358;SDS011;3212;51.460;11.868;2023-07-13T02:38:55;3.83;;;3.13;;
6358;SDS011;3212;51.460;11.868;2023-07-13T02:42:17;3.60;;;3.17;;
6358;SDS011;3212;51.460;11.868;2023-07-13T02:45:44;7.30;;;3.67;;
6358;SDS011;3212;51.460;11.868;2023-07-13T02:49:06;4.10;;;3.70;;
6358;SDS011;3212;51.460;11.868;2023-07-13T02:52:29;3.27;;;2.97;;
6358;SDS011;3212;51.460;11.868;2023-07-13T02:55:51;4.43;;;3.10;;
6358;SDS011;3212;51.460;11.868;2023-07-13T02:59:14;5.03;;;3.30;;
6358;SDS011;3212;51.460;11.868;2023-07-13T03:02:37;4.17;;;3.77;;
6358;SDS011;3212;51.460;11.868;2023-07-13T03:06:00;4.27;;;2.93;;
6358;SDS011;3212;51.460;11.868;2023-07-13T03:09:23;4.47;;;3.30;;
6358;SDS011;3212;51.460;11.868;2023-07-13T03:12:45;7.90;;;3.30;;
6358;SDS011;3212;51.460;11.868;2023-07-13T03:16:08;3.27;;;2.77;;
6358;SDS011;3212;51.460;11.868;2023-07-13T03:19:31;7.30;;;3.13;;
6358;SDS011;3212;51.460;11.868;2023-07-13T03:22:53;6.07;;;3.10;;
6358;SDS011;3212;51.460;11.868;2023-07-13T03:26:17;5.57;;;3.67;;
6358;SDS011;3212;51.460;11.868;2023-07-13T03:29:38;4.13;;;3.20;;
6358;SDS011;3212;51.460;11.868;2023-07-13T03:33:01;4.33;;;3.30;;
6358;SDS011;3212;51.460;11.868;2023-07-13T03:36:24;3.43;;;3.13;;
6358;SDS011;3212;51.460;11.868;2023-07-13T03:39:46;3.93;;;3.03;;
6358;SDS011;3212;51.460;11.868;2023-07-13T03:43:09;4.20;;;3.10;;
6358;SDS011;3212;51.460;11.868;2023-07-13T03:46:31;6.63;;;3.50;;
6358;SDS011;3212;51.460;11.868;2023-07-13T03:49:54;5.27;;;3.50;;
6358;SDS011;3212;51.460;11.868;2023-07-13T03:53:17;4.00;;;3.40;;
6358;SDS011;3212;51.460;11.868;2023-07-13T03:56:40;3.70;;;3.17;;
6358;SDS011;3212;51.460;11.868;2023-07-13T04:00:02;3.60;;;3.17;;
6358;SDS011;3212;51.460;11.868;2023-07-13T04:03:25;4.70;;;3.80;;
6358;SDS011;3212;51.460;11.868;2023-07-13T04:06:47;6.93;;;3.50;;
6358;SDS011;3212;51.460;11.868;2023-07-13T04:10:10;6.00;;;3.60;;
6358;SDS011;3212;51.460;11.868;2023-07-13T04:13:33;5.73;;;3.60;;
6358;SDS011;3212;51.460;11.868;2023-07-13T04:16:57;4.63;;;3.00;;
6358;SDS011;3212;51.460;11.868;2023-07-13T04:20:21;4.43;;;3.50;;
6358;SDS011;3212;51.460;11.868;2023-07-13T04:23:44;6.07;;;3.23;;
6358;SDS011;3212;51.460;11.868;2023-07-13T04:27:07;4.10;;;3.00;;
6358;SDS011;3212;51.460;11.868;2023-07-13T04:30:29;6.83;;;4.03;;
6358;SDS011;3212;51.460;11.868;2023-07-13T04:33:53;4.53;;;3.30;;
6358;SDS011;3212;51.460;11.868;2023-07-13T04:37:16;4.20;;;3.50;;
6358;SDS011;3212;51.460;11.868;2023-07-13T04:40:38;5.83;;;3.47;;
6358;SDS011;3212;51.460;11.868;2023-07-13T04:44:00;6.07;;;3.10;;
6358;SDS011;3212;51.460;11.868;2023-07-13T04:47:24;6.63;;;3.80;;
6358;SDS011;3212;51.460;11.868;2023-07-13T04:50:46;7.23;;;3.70;;
6358;SDS011;3212;51.460;11.868;2023-07-13T04:54:08;16.33;;;3.93;;
6358;SDS011;3212;51.460;11.868;2023-07-13T04:57:31;9.50;;;3.80;;
6358;SDS011;3212;51.460;11.868;2023-07-13T05:00:59;6.57;;;3.60;;
6358;SDS011;3212;51.460;11.868;2023-07-13T05:04:24;9.30;;;4.17;;
6358;SDS011;3212;51.460;11.868;2023-07-13T05:07:47;11.97;;;3.50;;
6358;SDS011;3212;51.460;11.868;2023-07-13T05:11:09;6.23;;;3.50;;
6358;SDS011;3212;51.460;11.868;2023-07-13T05:14:32;9.37;;;3.57;;
6358;SDS011;3212;51.460;11.868;2023-07-13T05:17:55;8.20;;;3.87;;
6358;SDS011;3212;51.460;11.868;2023-07-13T05:21:17;13.25;;;3.35;;
6358;SDS011;3212;51.460;11.868;2023-07-13T05:24:40;13.93;;;3.50;;
6358;SDS011;3212;51.460;11.868;2023-07-13T05:28:07;4.17;;;3.07;;
6358;SDS011;3212;51.460;11.868;2023-07-13T05:31:31;9.00;;;3.60;;
6358;SDS011;3212;51.460;11.868;2023-07-13T05:34:54;6.00;;;3.00;;
6358;SDS011;3212;51.460;11.868;2023-07-13T05:38:17;5.87;;;3.23;;
6358;SDS011;3212;51.460;11.868;2023-07-13T05:41:39;4.90;;;2.83;;
6358;SDS011;3212;51.460;11.868;2023-07-13T05:45:02;11.10;;;3.10;;
6358;SDS011;3212;51.460;11.868;2023-07-13T05:48:25;4.97;;;2.90;;
6358;SDS011;3212;51.460;11.868;2023-07-13T05:51:47;7.73;;;2.90;;
6358;SDS011;3212;51.460;11.868;2023-07-13T05:55:11;5.50;;;2.80;;
6358;SDS011;3212;51.460;11.868;2023-07-13T05:58:33;4.60;;;2.87;;
6358;SDS011;3212;51.460;11.868;2023-07-13T06:01:56;2.90;;;2.43;;
6358;SDS011;3212;51.460;11.868;2023-07-13T06:05:19;3.97;;;2.60;;
6358;SDS011;3212;51.460;11.868;2023-07-13T06:08:41;11.40;;;2.60;;
6358;SDS011;3212;51.460;11.868;2023-07-13T06:12:04;6.10;;;2.50;;
6358;SDS011;3212;51.460;11.868;2023-07-13T06:15:27;4.60;;;2.20;;
6358;SDS011;3212;51.460;11.868;2023-07-13T06:18:56;8.43;;;2.28;;
6358;SDS011;3212;51.460;11.868;2023-07-13T06:22:19;6.90;;;2.03;;
6358;SDS011;3212;51.460;11.868;2023-07-13T06:25:42;5.03;;;2.20;;
6358;SDS011;3212;51.460;11.868;2023-07-13T06:29:04;7.27;;;2.30;;
6358;SDS011;3212;51.460;11.868;2023-07-13T06:32:28;6.07;;;2.40;;
6358;SDS011;3212;51.460;11.868;2023-07-13T06:35:51;3.97;;;1.70;;
6358;SDS011;3212;51.460;11.868;2023-07-13T06:39:14;3.03;;;1.80;;
6358;SDS011;3212;51.460;11.868;2023-07-13T06:42:36;4.03;;;1.50;;
6358;SDS011;3212;51.460;11.868;2023-07-13T06:45:59;3.37;;;1.47;;
6358;SDS011;3212;51.460;11.868;2023-07-13T06:49:22;2.00;;;1.53;;
6358;SDS011;3212;51.460;11.868;2023-07-13T06:52:44;4.03;;;2.13;;
6358;SDS011;3212;51.460;11.868;2023-07-13T06:56:07;3.40;;;1.77;;
6358;SDS011;3212;51.460;11.868;2023-07-13T06:59:30;3.33;;;1.50;;
6358;SDS011;3212;51.460;11.868;2023-07-13T07:02:53;2.87;;;1.40;;
6358;SDS011;3212;51.460;11.868;2023-07-13T07:06:18;2.50;;;1.40;;
6358;SDS011;3212;51.460;11.868;2023-07-13T07:09:39;6.20;;;1.60;;
6358;SDS011;3212;51.460;11.868;2023-07-13T07:13:03;1.70;;;1.57;;
6358;SDS011;3212;51.460;11.868;2023-07-13T07:16:25;2.57;;;1.73;;
6358;SDS011;3212;51.460;11.868;2023-07-13T07:19:47;4.90;;;3.07;;
6358;SDS011;3212;51.460;11.868;2023-07-13T07:23:11;7.10;;;2.13;;
6358;SDS011;3212;51.460;11.868;2023-07-13T07:26:34;2.60;;;1.70;;
6358;SDS011;3212;51.460;11.868;2023-07-13T07:29:56;5.00;;;1.90;;
6358;SDS011;3212;51.460;11.868;2023-07-13T07:33:19;2.60;;;1.80;;
6358;SDS011;3212;51.460;11.868;2023-07-13T07:36:42;5.13;;;2.10;;
6358;SDS011;3212;51.460;11.868;2023-07-13T07:40:05;1.70;;;1.60;;
6358;SDS011;3212;51.460;11.868;2023-07-13T07:43:29;4.30;;;2.00;;
6358;SDS011;3212;51.460;11.868;2023-07-13T07:46:51;2.30;;;2.10;;
6358;SDS011;3212;51.460;11.868;2023-07-13T07:50:13;3.87;;;2.00;;
6358;SDS011;3212;51.460;11.868;2023-07-13T07:53:36;2.93;;;1.73;;
6358;SDS011;3212;51.460;11.868;2023-07-13T07:57:00;3.93;;;1.70;;
6358;SDS011;3212;51.460;11.868;2023-07-13T08:00:22;4.17;;;2.33;;
6358;SDS011;3212;51.460;11.868;2023-07-13T08:03:45;4.33;;;1.93;;
6358;SDS011;3212;51.460;11.868;2023-07-13T08:07:08;9.53;;;1.90;;
6358;SDS011;3212;51.460;11.868;2023-07-13T08:10:30;2.67;;;1.77;;
6358;SDS011;3212;51.460;11.868;2023-07-13T08:13:55;7.00;;;2.00;;
6358;SDS011;3212;51.460;11.868;2023-07-13T08:17:20;2.93;;;1.67;;
6358;SDS011;3212;51.460;11.868;2023-07-13T08:20:42;2.80;;;1.60;;
6358;SDS011;3212;51.460;11.868;2023-07-13T08:24:05;2.97;;;1.70;;
6358;SDS011;3212;51.460;11.868;2023-07-13T08:27:28;3.20;;;1.70;;
6358;SDS011;3212;51.460;11.868;2023-07-13T08:30:51;4.83;;;2.23;;
6358;SDS011;3212;51.460;11.868;2023-07-13T08:34:14;5.97;;;2.20;;
6358;SDS011;3212;51.460;11.868;2023-07-13T08:37:37;2.10;;;1.90;;
6358;SDS011;3212;51.460;11.868;2023-07-13T08:41:02;2.60;;;2.27;;
6358;SDS011;3212;51.460;11.868;2023-07-13T08:44:25;3.00;;;2.27;;
6358;SDS011;3212;51.460;11.868;2023-07-13T08:47:51;3.23;;;1.83;;
6358;SDS011;3212;51.460;11.868;2023-07-13T08:51:21;2.63;;;2.00;;
6358;SDS011;3212;51.460;11.868;2023-07-13T08:54:45;6.03;;;1.90;;
6358;SDS011;3212;51.460;11.868;2023-07-13T08:58:11;5.53;;;2.13;;
6358;SDS011;3212;51.460;11.868;2023-07-13T09:01:38;2.87;;;2.20;;
6358;SDS011;3212;51.460;11.868;2023-07-13T09:05:11;2.47;;;1.83;;
6358;SDS011;3212;51.460;11.868;2023-07-13T09:08:41;3.30;;;2.40;;
6358;SDS011;3212;51.460;11.868;2023-07-13T09:12:05;2.80;;;2.20;;
6358;SDS011;3212;51.460;11.868;2023-07-13T09:15:29;3.93;;;1.77;;
6358;SDS011;3212;51.460;11.868;2023-07-13T09:18:51;2.50;;;1.70;;
6358;SDS011;3212;51.460;11.868;2023-07-13T09:22:14;4.93;;;1.60;;
6358;SDS011;3212;51.460;11.868;2023-07-13T09:25:36;1.70;;;1.60;;
6358;SDS011;3212;51.460;11.868;2023-07-13T09:28:59;4.70;;;1.60;;
6358;SDS011;3212;51.460;11.868;2023-07-13T09:32:22;4.37;;;1.47;;
6358;SDS011;3212;51.460;11.868;2023-07-13T09:35:45;2.00;;;1.80;;
6358;SDS011;3212;51.460;11.868;2023-07-13T09:39:13;3.40;;;1.50;;
6358;SDS011;3212;51.460;11.868;2023-07-13T09:42:33;1.60;;;1.50;;
6358;SDS011;3212;51.460;11.868;2023-07-13T09:45:55;2.10;;;1.50;;
6358;SDS011;3212;51.460;11.868;2023-07-13T09:49:18;2.50;;;1.40;;
6358;SDS011;3212;51.460;11.868;2023-07-13T09:52:42;1.63;;;1.50;;
6358;SDS011;3212;51.460;11.868;2023-07-13T09:56:04;2.33;;;1.60;;
6358;SDS011;3212;51.460;11.868;2023-07-13T09:59:30;4.00;;;1.80;;
6358;SDS011;3212;51.460;11.868;2023-07-13T10:02:58;4.03;;;1.73;;
6358;SDS011;3212;51.460;11.868;2023-07-13T10:06:22;5.60;;;1.67;;
6358;SDS011;3212;51.460;11.868;2023-07-13T10:09:44;3.97;;;1.47;;
6358;SDS011;3212;51.460;11.868;2023-07-13T10:13:20;3.27;;;1.90;;
6358;SDS011;3212;51.460;11.868;2023-07-13T10:16:30;2.53;;;1.77;;
6358;SDS011;3212;51.460;11.868;2023-07-13T10:19:54;4.30;;;2.60;;
6358;SDS011;3212;51.460;11.868;2023-07-13T10:23:20;3.13;;;2.00;;
6358;SDS011;3212;51.460;11.868;2023-07-13T10:26:41;2.20;;;1.90;;
6358;SDS011;3212;51.460;11.868;2023-07-13T10:33:43;1.80;;;1.70;;
6358;SDS011;3212;51.460;11.868;2023-07-13T10:37:06;2.70;;;1.70;;
6358;SDS011;3212;51.460;11.868;2023-07-13T10:40:31;4.80;;;1.57;;
6358;SDS011;3212;51.460;11.868;2023-07-13T10:43:51;3.97;;;1.73;;
6358;SDS011;3212;51.460;11.868;2023-07-13T10:47:14;3.30;;;1.60;;
6358;SDS011;3212;51.460;11.868;2023-07-13T10:50:36;2.33;;;1.13;;
6358;SDS011;3212;51.460;11.868;2023-07-13T10:57:43;1.93;;;1.40;;
6358;SDS011;3212;51.460;11.868;2023-07-13T11:01:09;1.87;;;1.40;;
6358;SDS011;3212;51.460;11.868;2023-07-13T11:04:39;1.30;;;1.17;;
6358;SDS011;3212;51.460;11.868;2023-07-13T11:08:04;3.33;;;1.20;;
6358;SDS011;3212;51.460;11.868;2023-07-13T11:11:33;1.23;;;1.10;;
6358;SDS011;3212;51.460;11.868;2023-07-13T11:15:04;1.67;;;1.20;;
6358;SDS011;3212;51.460;11.868;2023-07-13T11:18:27;5.00;;;1.15;;
6358;SDS011;3212;51.460;11.868;2023-07-13T11:25:31;1.80;;;1.10;;
6358;SDS011;3212;51.460;11.868;2023-07-13T11:28:53;1.10;;;1.00;;
6358;SDS011;3212;51.460;11.868;2023-07-13T11:32:23;1.83;;;1.00;;
6358;SDS011;3212;51.460;11.868;2023-07-13T11:35:51;2.97;;;1.20;;
6358;SDS011;3212;51.460;11.868;2023-07-13T11:39:19;1.63;;;1.03;;
6358;SDS011;3212;51.460;11.868;2023-07-13T11:42:52;3.67;;;0.97;;
6358;SDS011;3212;51.460;11.868;2023-07-13T11:46:15;2.45;;;0.95;;
6358;SDS011;3212;51.460;11.868;2023-07-13T11:49:43;2.23;;;1.10;;
6358;SDS011;3212;51.460;11.868;2023-07-13T11:53:08;1.33;;;0.90;;
6358;SDS011;3212;51.460;11.868;2023-07-13T11:56:28;1.30;;;1.20;;
6358;SDS011;3212;51.460;11.868;2023-07-13T11:59:51;1.23;;;0.90;;
6358;SDS011;3212;51.460;11.868;2023-07-13T12:03:17;2.33;;;0.97;;
6358;SDS011;3212;51.460;11.868;2023-07-13T12:06:37;1.83;;;1.03;;
6358;SDS011;3212;51.460;11.868;2023-07-13T12:10:04;1.20;;;1.00;;
6358;SDS011;3212;51.460;11.868;2023-07-13T12:13:26;1.30;;;1.00;;
6358;SDS011;3212;51.460;11.868;2023-07-13T12:16:48;6.00;;;1.00;;
6358;SDS011;3212;51.460;11.868;2023-07-13T12:23:44;2.83;;;1.10;;
6358;SDS011;3212;51.460;11.868;2023-07-13T12:27:05;1.27;;;0.80;;
6358;SDS011;3212;51.460;11.868;2023-07-13T12:30:30;2.20;;;1.00;;
6358;SDS011;3212;51.460;11.868;2023-07-13T12:33:58;3.00;;;0.90;;
6358;SDS011;3212;51.460;11.868;2023-07-13T12:37:19;4.00;;;1.10;;
6358;SDS011;3212;51.460;11.868;2023-07-13T12:40:41;1.47;;;1.27;;
6358;SDS011;3212;51.460;11.868;2023-07-13T12:44:04;1.73;;;1.07;;
6358;SDS011;3212;51.460;11.868;2023-07-13T12:47:26;3.00;;;1.10;;
6358;SDS011;3212;51.460;11.868;2023-07-13T12:50:49;1.47;;;0.77;;
6358;SDS011;3212;51.460;11.868;2023-07-13T12:54:15;2.70;;;1.07;;
6358;SDS011;3212;51.460;11.868;2023-07-13T12:57:39;4.10;;;1.20;;
6358;SDS011;3212;51.460;11.868;2023-07-13T13:01:01;1.67;;;1.00;;
6358;SDS011;3212;51.460;11.868;2023-07-13T13:04:24;0.87;;;0.87;;
6358;SDS011;3212;51.460;11.868;2023-07-13T13:07:46;1.40;;;1.00;;
6358;SDS011;3212;51.460;11.868;2023-07-13T13:11:09;1.33;;;0.90;;
6358;SDS011;3212;51.460;11.868;2023-07-13T13:14:32;1.97;;;1.10;;
6358;SDS011;3212;51.460;11.868;2023-07-13T13:17:54;2.80;;;1.10;;
6358;SDS011;3212;51.460;11.868;2023-07-13T13:21:17;1.20;;;1.00;;
6358;SDS011;3212;51.460;11.868;2023-07-13T13:24:39;2.07;;;1.20;;
6358;SDS011;3212;51.460;11.868;2023-07-13T13:28:03;1.13;;;1.03;;
6358;SDS011;3212;51.460;11.868;2023-07-13T13:31:26;1.40;;;1.00;;
6358;SDS011;3212;51.460;11.868;2023-07-13T13:34:48;1.10;;;1.00;;
6358;SDS011;3212;51.460;11.868;2023-07-13T13:38:13;1.30;;;1.03;;
6358;SDS011;3212;51.460;11.868;2023-07-13T13:41:35;3.67;;;1.13;;
6358;SDS011;3212;51.460;11.868;2023-07-13T13:44:58;18.73;;;3.23;;
6358;SDS011;3212;51.460;11.868;2023-07-13T13:48:21;3.53;;;1.20;;
6358;SDS011;3212;51.460;11.868;2023-07-13T13:51:43;3.27;;;1.10;;
6358;SDS011;3212;51.460;11.868;2023-07-13T13:55:12;2.10;;;1.23;;
6358;SDS011;3212;51.460;11.868;2023-07-13T13:58:34;1.40;;;1.10;;
6358;SDS011;3212;51.460;11.868;2023-07-13T14:01:57;1.33;;;0.93;;
6358;SDS011;3212;51.460;11.868;2023-07-13T14:05:21;2.50;;;1.00;;
6358;SDS011;3212;51.460;11.868;2023-07-13T14:08:43;5.13;;;1.27;;
6358;SDS011;3212;51.460;11.868;2023-07-13T14:12:08;1.30;;;1.20;;
6358;SDS011;3212;51.460;11.868;2023-07-13T14:15:29;2.30;;;1.23;;
6358;SDS011;3212;51.460;11.868;2023-07-13T14:18:53;2.87;;;1.20;;
6358;SDS011;3212;51.460;11.868;2023-07-13T14:22:15;1.57;;;1.10;;
6358;SDS011;3212;51.460;11.868;2023-07-13T14:25:38;2.27;;;1.10;;
6358;SDS011;3212;51.460;11.868;2023-07-13T14:29:02;1.83;;;1.30;;
6358;SDS011;3212;51.460;11.868;2023-07-13T14:32:24;1.40;;;1.20;;
6358;SDS011;3212;51.460;11.868;2023-07-13T14:35:46;1.43;;;1.20;;
6358;SDS011;3212;51.460;11.868;2023-07-13T14:39:12;1.30;;;1.00;;
6358;SDS011;3212;51.460;11.868;2023-07-13T14:42:33;2.20;;;1.07;;
6358;SDS011;3212;51.460;11.868;2023-07-13T14:45:55;1.67;;;1.10;;
6358;SDS011;3212;51.460;11.868;2023-07-13T14:53:01;2.60;;;1.10;;
6358;SDS011;3212;51.460;11.868;2023-07-13T14:56:24;1.60;;;1.20;;
6358;SDS011;3212;51.460;11.868;2023-07-13T14:59:47;3.23;;;1.13;;
6358;SDS011;3212;51.460;11.868;2023-07-13T15:03:15;3.27;;;1.53;;
6358;SDS011;3212;51.460;11.868;2023-07-13T15:06:39;1.53;;;1.20;;
6358;SDS011;3212;51.460;11.868;2023-07-13T15:09:55;1.83;;;1.23;;
6358;SDS011;3212;51.460;11.868;2023-07-13T15:13:18;3.20;;;1.10;;
6358;SDS011;3212;51.460;11.868;2023-07-13T15:16:40;1.40;;;1.10;;
6358;SDS011;3212;51.460;11.868;2023-07-13T15:20:04;1.57;;;1.20;;
6358;SDS011;3212;51.460;11.868;2023-07-13T15:23:26;1.40;;;1.10;;
6358;SDS011;3212;51.460;11.868;2023-07-13T15:26:48;1.53;;;1.00;;
6358;SDS011;3212;51.460;11.868;2023-07-13T15:30:11;4.70;;;1.30;;
6358;SDS011;3212;51.460;11.868;2023-07-13T15:33:34;2.20;;;1.43;;
6358;SDS011;3212;51.460;11.868;2023-07-13T15:36:58;3.73;;;1.10;;
6358;SDS011;3212;51.460;11.868;2023-07-13T15:40:20;1.10;;;1.00;;
6358;SDS011;3212;51.460;11.868;2023-07-13T15:43:43;1.63;;;1.03;;
6358;SDS011;3212;51.460;11.868;2023-07-13T15:47:08;2.60;;;0.93;;
6358;SDS011;3212;51.460;11.868;2023-07-13T15:50:29;1.30;;;1.10;;
6358;SDS011;3212;51.460;11.868;2023-07-13T15:53:53;1.65;;;1.02;;
6358;SDS011;3212;51.460;11.868;2023-07-13T15:57:15;1.87;;;1.00;;
6358;SDS011;3212;51.460;11.868;2023-07-13T16:00:38;1.70;;;1.10;;
6358;SDS011;3212;51.460;11.868;2023-07-13T16:04:01;1.67;;;0.93;;
6358;SDS011;3212;51.460;11.868;2023-07-13T16:07:24;4.57;;;1.53;;
6358;SDS011;3212;51.460;11.868;2023-07-13T16:10:46;2.13;;;1.30;;
6358;SDS011;3212;51.460;11.868;2023-07-13T16:14:11;2.20;;;0.90;;
6358;SDS011;3212;51.460;11.868;2023-07-13T16:17:32;1.20;;;1.10;;
6358;SDS011;3212;51.460;11.868;2023-07-13T16:20:54;2.97;;;1.03;;
6358;SDS011;3212;51.460;11.868;2023-07-13T16:24:18;1.30;;;1.20;;
6358;SDS011;3212;51.460;11.868;2023-07-13T16:27:40;3.13;;;1.30;;
6358;SDS011;3212;51.460;11.868;2023-07-13T16:31:02;2.17;;;1.10;;
6358;SDS011;3212;51.460;11.868;2023-07-13T16:34:25;3.70;;;1.13;;
6358;SDS011;3212;51.460;11.868;2023-07-13T16:37:47;2.60;;;1.13;;
6358;SDS011;3212;51.460;11.868;2023-07-13T16:41:10;2.60;;;1.10;;
6358;SDS011;3212;51.460;11.868;2023-07-13T16:44:33;1.20;;;1.10;;
6358;SDS011;3212;51.460;11.868;2023-07-13T16:47:56;5.27;;;2.40;;
6358;SDS011;3212;51.460;11.868;2023-07-13T16:51:18;3.50;;;1.80;;
6358;SDS011;3212;51.460;11.868;2023-07-13T16:54:41;2.53;;;1.87;;
6358;SDS011;3212;51.460;11.868;2023-07-13T16:58:04;1.70;;;1.30;;
6358;SDS011;3212;51.460;11.868;2023-07-13T17:01:27;1.73;;;1.20;;
6358;SDS011;3212;51.460;11.868;2023-07-13T17:04:50;6.00;;;1.23;;
6358;SDS011;3212;51.460;11.868;2023-07-13T17:08:14;1.50;;;1.30;;
6358;SDS011;3212;51.460;11.868;2023-07-13T17:11:44;4.30;;;3.00;;
6358;SDS011;3212;51.460;11.868;2023-07-13T17:15:08;1.50;;;1.40;;
6358;SDS011;3212;51.460;11.868;2023-07-13T17:18:29;2.60;;;1.20;;
6358;SDS011;3212;51.460;11.868;2023-07-13T17:21:54;1.37;;;1.27;;
6358;SDS011;3212;51.460;11.868;2023-07-13T17:25:17;1.50;;;1.40;;
6358;SDS011;3212;51.460;11.868;2023-07-13T17:28:39;1.53;;;0.97;;
6358;SDS011;3212;51.460;11.868;2023-07-13T17:32:03;1.10;;;1.00;;
6358;SDS011;3212;51.460;11.868;2023-07-13T17:35:27;3.67;;;1.60;;
6358;SDS011;3212;51.460;11.868;2023-07-13T17:38:49;4.50;;;1.40;;
6358;SDS011;3212;51.460;11.868;2023-07-13T17:42:12;1.63;;;1.13;;
6358;SDS011;3212;51.460;11.868;2023-07-13T17:45:34;2.73;;;1.23;;
6358;SDS011;3212;51.460;11.868;2023-07-13T17:48:57;1.57;;;1.10;;
6358;SDS011;3212;51.460;11.868;2023-07-13T17:52:20;3.80;;;1.10;;
6358;SDS011;3212;51.460;11.868;2023-07-13T17:55:42;1.47;;;1.27;;
6358;SDS011;3212;51.460;11.868;2023-07-13T17:59:05;1.83;;;1.40;;
6358;SDS011;3212;51.460;11.868;2023-07-13T18:02:28;2.27;;;1.20;;
6358;SDS011;3212;51.460;11.868;2023-07-13T18:05:51;23.10;;;2.63;;
6358;SDS011;3212;51.460;11.868;2023-07-13T18:09:16;7.80;;;1.90;;
6358;SDS011;3212;51.460;11.868;2023-07-13T18:12:38;5.10;;;2.00;;
6358;SDS011;3212;51.460;11.868;2023-07-13T18:16:00;7.63;;;1.97;;
6358;SDS011;3212;51.460;11.868;2023-07-13T18:23:08;4.83;;;2.23;;
6358;SDS011;3212;51.460;11.868;2023-07-13T18:26:27;4.07;;;2.50;;
6358;SDS011;3212;51.460;11.868;2023-07-13T18:29:50;2.30;;;2.10;;
6358;SDS011;3212;51.460;11.868;2023-07-13T18:33:18;5.73;;;2.40;;
6358;SDS011;3212;51.460;11.868;2023-07-13T18:36:42;4.03;;;2.60;;
6358;SDS011;3212;51.460;11.868;2023-07-13T18:40:04;2.37;;;2.10;;
6358;SDS011;3212;51.460;11.868;2023-07-13T18:43:27;5.70;;;2.40;;
6358;SDS011;3212;51.460;11.868;2023-07-13T18:46:49;3.93;;;2.30;;
6358;SDS011;3212;51.460;11.868;2023-07-13T18:50:13;7.17;;;3.10;;
6358;SDS011;3212;51.460;11.868;2023-07-13T18:53:36;3.13;;;2.20;;
6358;SDS011;3212;51.460;11.868;2023-07-13T18:56:59;3.10;;;2.13;;
6358;SDS011;3212;51.460;11.868;2023-07-13T19:00:23;3.57;;;2.20;;
6358;SDS011;3212;51.460;11.868;2023-07-13T19:03:45;3.00;;;2.20;;
6358;SDS011;3212;51.460;11.868;2023-07-13T19:07:08;5.40;;;2.50;;
6358;SDS011;3212;51.460;11.868;2023-07-13T19:10:31;7.63;;;2.53;;
6358;SDS011;3212;51.460;11.868;2023-07-13T19:13:54;5.13;;;2.07;;
6358;SDS011;3212;51.460;11.868;2023-07-13T19:17:17;4.03;;;2.30;;
6358;SDS011;3212;51.460;11.868;2023-07-13T19:20:40;4.03;;;2.33;;
6358;SDS011;3212;51.460;11.868;2023-07-13T19:24:02;5.90;;;2.27;;
6358;SDS011;3212;51.460;11.868;2023-07-13T19:27:24;4.30;;;2.43;;
6358;SDS011;3212;51.460;11.868;2023-07-13T19:30:47;6.13;;;2.57;;
6358;SDS011;3212;51.460;11.868;2023-07-13T19:34:17;4.20;;;2.43;;
6358;SDS011;3212;51.460;11.868;2023-07-13T19:37:40;4.40;;;2.50;;
6358;SDS011;3212;51.460;11.868;2023-07-13T19:41:02;5.30;;;2.83;;
6358;SDS011;3212;51.460;11.868;2023-07-13T19:44:26;5.27;;;2.20;;
6358;SDS011;3212;51.460;11.868;2023-07-13T19:47:48;11.43;;;2.70;;
6358;SDS011;3212;51.460;11.868;2023-07-13T19:51:14;15.47;;;2.80;;
6358;SDS011;3212;51.460;11.868;2023-07-13T19:54:35;24.30;;;3.30;;
6358;SDS011;3212;51.460;11.868;2023-07-13T19:57:58;23.70;;;2.97;;
6358;SDS011;3212;51.460;11.868;2023-07-13T20:01:20;13.67;;;2.83;;
6358;SDS011;3212;51.460;11.868;2023-07-13T20:04:43;12.50;;;3.33;;
6358;SDS011;3212;51.460;11.868;2023-07-13T20:08:20;5.27;;;2.40;;
6358;SDS011;3212;51.460;11.868;2023-07-13T20:11:29;6.60;;;2.70;;
6358;SDS011;3212;51.460;11.868;2023-07-13T20:14:52;2.73;;;2.33;;
6358;SDS011;3212;51.460;11.868;2023-07-13T20:18:15;8.30;;;2.70;;
6358;SDS011;3212;51.460;11.868;2023-07-13T20:21:38;4.63;;;2.50;;
6358;SDS011;3212;51.460;11.868;2023-07-13T20:25:01;6.83;;;2.20;;
6358;SDS011;3212;51.460;11.868;2023-07-13T20:28:23;5.30;;;2.60;;
6358;SDS011;3212;51.460;11.868;2023-07-13T20:31:46;4.23;;;2.20;;
6358;SDS011;3212;51.460;11.868;2023-07-13T20:38:53;5.07;;;2.78;;
6358;SDS011;3212;51.460;11.868;2023-07-13T20:42:16;4.90;;;2.93;;
6358;SDS011;3212;51.460;11.868;2023-07-13T20:45:39;6.00;;;2.80;;
6358;SDS011;3212;51.460;11.868;2023-07-13T20:49:01;5.00;;;2.57;;
6358;SDS011;3212;51.460;11.868;2023-07-13T20:52:24;5.77;;;2.50;;
6358;SDS011;3212;51.460;11.868;2023-07-13T20:55:47;5.33;;;2.60;;
6358;SDS011;3212;51.460;11.868;2023-07-13T20:59:09;6.43;;;2.57;;
6358;SDS011;3212;51.460;11.868;2023-07-13T21:02:31;2.77;;;2.20;;
6358;SDS011;3212;51.460;11.868;2023-07-13T21:05:54;5.13;;;2.70;;